Time;durP1;ratioP1;P1;durP2;ratioP2;P2;SDS_P1;SDS_P2;PMS_P1;PMS_P2;Temp;Humidity;BMP_temperature;BMP_pressure;BME280_temperature;BME280_humidity;BME280_pressure;Samples;Min_cycle;Max_cycle;Signal;HPM_P1;HPM_P2
2022/11/12 00:00:43;;;;;;;0.00;0.00;;;;;;;;;;6098505;23;20018;-72
2022/11/12 00:03:09;;;;;;;1.90;1.80;;;;;;;;;;6099001;23;20383;-71
2022/11/12 00:05:36;;;;;;;0.10;0.10;;;;;;;;;;6097955;23;20032;-71
2022/11/12 00:08:03;;;;;;;1.40;0.73;;;;;;;;;;6124866;23;20020;-71
2022/11/12 00:10:30;;;;;;;0.30;0.30;;;;;;;;;;6124183;23;20006;-71
2022/11/12 00:12:57;;;;;;;5.00;3.00;;;;;;;;;;6097050;23;20017;-71
2022/11/12 00:15:23;;;;;;;0.00;0.00;;;;;;;;;;6122127;23;20006;-70
2022/11/12 00:17:49;;;;;;;0.33;0.33;;;;;;;;;;6121521;23;20012;-71
2022/11/12 00:20:16;;;;;;;1.90;1.90;;;;;;;;;;6123701;23;20002;-71
2022/11/12 00:22:42;;;;;;;0.00;0.00;;;;;;;;;;6100671;23;20006;-70
2022/11/12 00:25:09;;;;;;;0.00;0.00;;;;;;;;;;6125268;23;20096;-71
2022/11/12 00:27:35;;;;;;;0.00;0.00;;;;;;;;;;6125104;23;20015;-71
2022/11/12 00:30:02;;;;;;;0.00;0.00;;;;;;;;;;6099101;23;20010;-71
2022/11/12 00:32:28;;;;;;;0.00;0.00;;;;;;;;;;6099163;23;20346;-70
2022/11/12 00:34:54;;;;;;;0.00;0.00;;;;;;;;;;6126611;23;20049;-71
2022/11/12 00:37:22;;;;;;;0.00;0.00;;;;;;;;;;6101200;23;20350;-70
2022/11/12 00:39:48;;;;;;;0.00;0.00;;;;;;;;;;6128203;23;20009;-70
2022/11/12 00:42:14;;;;;;;2.93;2.83;;;;;;;;;;6128523;23;20006;-71
2022/11/12 00:44:41;;;;;;;4.37;4.00;;;;;;;;;;6129178;23;20113;-69
2022/11/12 00:47:10;;;;;;;7.70;5.03;;;;;;;;;;6127688;23;20013;-70
2022/11/12 00:49:37;;;;;;;0.10;0.10;;;;;;;;;;6100440;23;20439;-69
2022/11/12 00:52:03;;;;;;;0.17;0.17;;;;;;;;;;6101234;23;20002;-70
2022/11/12 00:54:30;;;;;;;0.13;0.13;;;;;;;;;;6100768;23;20410;-71
2022/11/12 00:56:56;;;;;;;0.00;0.00;;;;;;;;;;6100730;23;20065;-71
2022/11/12 00:59:22;;;;;;;1.03;0.93;;;;;;;;;;6100008;23;20462;-72
2022/11/12 01:01:49;;;;;;;0.10;0.10;;;;;;;;;;6100254;23;20013;-72
2022/11/12 01:04:15;;;;;;;0.00;0.00;;;;;;;;;;6127025;23;20062;-71
2022/11/12 01:06:42;;;;;;;0.00;0.00;;;;;;;;;;6101050;23;20009;-71
2022/11/12 01:09:09;;;;;;;0.13;0.13;;;;;;;;;;6126722;23;20033;-71
2022/11/12 01:11:35;;;;;;;0.00;0.00;;;;;;;;;;6100827;23;20346;-71
2022/11/12 01:14:04;;;;;;;0.03;0.03;;;;;;;;;;6100696;23;20006;-71
2022/11/12 01:16:32;;;;;;;0.00;0.00;;;;;;;;;;6100774;23;20049;-71
2022/11/12 01:18:59;;;;;;;0.07;0.07;;;;;;;;;;6126789;23;20335;-71
2022/11/12 01:21:27;;;;;;;0.00;0.00;;;;;;;;;;6100915;23;20002;-71
2022/11/12 01:23:53;;;;;;;0.00;0.00;;;;;;;;;;6126951;23;20005;-71
2022/11/12 01:26:22;;;;;;;0.00;0.00;;;;;;;;;;6126792;23;19998;-70
2022/11/12 01:28:48;;;;;;;0.00;0.00;;;;;;;;;;6126927;23;20001;-71
2022/11/12 01:31:19;;;;;;;0.60;0.60;;;;;;;;;;6100569;23;20439;-73
2022/11/12 01:33:47;;;;;;;0.00;0.00;;;;;;;;;;6101289;23;20017;-72
2022/11/12 01:36:14;;;;;;;0.10;0.10;;;;;;;;;;6126267;23;20434;-72
2022/11/12 01:38:41;;;;;;;0.00;0.00;;;;;;;;;;6126272;23;20308;-72
2022/11/12 01:41:09;;;;;;;0.73;0.57;;;;;;;;;;6126923;23;20002;-74
2022/11/12 01:43:35;;;;;;;3.70;2.73;;;;;;;;;;6100675;23;20006;-73
2022/11/12 01:46:03;;;;;;;2.83;2.70;;;;;;;;;;6099899;23;20064;-73
2022/11/12 01:48:34;;;;;;;0.00;0.00;;;;;;;;;;6126927;23;20081;-73
2022/11/12 01:51:03;;;;;;;25.37;23.97;;;;;;;;;;6126741;23;20087;-73
2022/11/12 01:53:31;;;;;;;0.00;0.00;;;;;;;;;;6127159;23;20419;-73
2022/11/12 01:55:58;;;;;;;0.00;0.00;;;;;;;;;;6125976;23;20211;-73
2022/11/12 01:58:27;;;;;;;1.03;1.03;;;;;;;;;;6126199;23;19998;-72
2022/11/12 02:00:53;;;;;;;7.00;6.70;;;;;;;;;;6126539;23;20010;-73
2022/11/12 02:03:21;;;;;;;4.50;3.30;;;;;;;;;;6126191;23;20190;-72
2022/11/12 02:05:58;;;;;;;0.97;0.97;;;;;;;;;;6126051;23;20042;-73
2022/11/12 02:08:25;;;;;;;0.63;0.60;;;;;;;;;;6126427;23;20002;-72
2022/11/12 02:10:51;;;;;;;8.23;7.53;;;;;;;;;;6126590;23;20457;-72
2022/11/12 02:16:04;;;;;;;1.43;1.43;;;;;;;;;;6126811;23;20375;-72
2022/11/12 02:18:30;;;;;;;4.77;4.40;;;;;;;;;;6100128;23;20009;-72
2022/11/12 02:20:58;;;;;;;4.83;4.43;;;;;;;;;;6100557;23;20030;-71
2022/11/12 02:23:25;;;;;;;7.57;6.60;;;;;;;;;;6126420;23;20025;-72
2022/11/12 02:25:51;;;;;;;15.10;13.60;;;;;;;;;;6126067;23;20006;-73
2022/11/12 02:28:17;;;;;;;4.90;4.60;;;;;;;;;;6098922;23;20045;-74
2022/11/12 02:30:45;;;;;;;0.00;0.00;;;;;;;;;;6125476;23;20076;-72
2022/11/12 02:33:12;;;;;;;5.97;5.77;;;;;;;;;;6125220;23;20033;-73
2022/11/12 02:35:38;;;;;;;0.10;0.10;;;;;;;;;;6126608;23;20009;-73
2022/11/12 02:38:04;;;;;;;7.20;6.70;;;;;;;;;;6100310;23;20013;-72
2022/11/12 02:40:31;;;;;;;3.10;2.87;;;;;;;;;;6126517;23;20002;-72
2022/11/12 02:42:58;;;;;;;2.07;1.50;;;;;;;;;;6126534;23;20006;-72
2022/11/12 02:45:24;;;;;;;4.47;4.17;;;;;;;;;;6127726;23;20021;-72
2022/11/12 02:47:50;;;;;;;0.37;0.37;;;;;;;;;;6100807;23;20010;-72
2022/11/12 02:50:17;;;;;;;2.47;2.37;;;;;;;;;;6099927;23;20017;-72
2022/11/12 02:52:43;;;;;;;8.90;6.83;;;;;;;;;;6099525;23;20006;-71
2022/11/12 02:55:11;;;;;;;24.40;22.10;;;;;;;;;;6098647;23;20014;-72
2022/11/12 02:57:37;;;;;;;6.70;6.23;;;;;;;;;;6125545;23;20116;-71
2022/11/12 03:00:08;;;;;;;2.70;2.57;;;;;;;;;;6099271;23;20032;-73
2022/11/12 03:02:41;;;;;;;12.47;11.90;;;;;;;;;;6125640;23;19998;-73
2022/11/12 03:05:11;;;;;;;3.50;3.30;;;;;;;;;;6125561;23;20111;-73
2022/11/12 03:07:37;;;;;;;17.13;9.13;;;;;;;;;;6125760;23;20086;-72
2022/11/12 03:10:04;;;;;;;3.03;2.93;;;;;;;;;;6125936;23;20029;-72
2022/11/12 03:12:31;;;;;;;9.17;8.60;;;;;;;;;;6126072;23;20017;-72
2022/11/12 03:14:58;;;;;;;0.40;0.40;;;;;;;;;;6125502;23;20002;-72
2022/11/12 03:17:24;;;;;;;7.90;7.43;;;;;;;;;;6099399;23;20513;-73
2022/11/12 03:19:50;;;;;;;2.28;2.17;;;;;;;;;;6098081;23;20447;-72
2022/11/12 03:22:17;;;;;;;17.50;12.57;;;;;;;;;;6098685;23;20002;-72
2022/11/12 03:24:43;;;;;;;11.87;10.23;;;;;;;;;;6099913;23;20010;-72
2022/11/12 03:27:09;;;;;;;3.80;3.25;;;;;;;;;;6099782;23;20434;-73
2022/11/12 03:29:35;;;;;;;2.05;1.95;;;;;;;;;;6125600;23;20002;-74
2022/11/12 03:32:02;;;;;;;12.10;8.53;;;;;;;;;;6099641;23;20339;-73
2022/11/12 03:34:28;;;;;;;0.90;0.90;;;;;;;;;;6099717;23;20006;-72
2022/11/12 03:36:54;;;;;;;6.30;5.70;;;;;;;;;;6099424;23;20033;-73
2022/11/12 03:39:21;;;;;;;29.85;14.38;;;;;;;;;;6099306;23;20123;-71
2022/11/12 03:41:47;;;;;;;5.18;3.53;;;;;;;;;;6098397;23;20013;-73
2022/11/12 03:44:13;;;;;;;33.13;14.80;;;;;;;;;;6098420;23;20432;-72
2022/11/12 03:46:40;;;;;;;32.50;15.60;;;;;;;;;;6098622;23;20108;-71
2022/11/12 03:49:06;;;;;;;9.02;8.13;;;;;;;;;;6125655;23;20006;-72
2022/11/12 03:51:32;;;;;;;27.10;21.60;;;;;;;;;;6124940;23;20029;-73
2022/11/12 03:53:58;;;;;;;33.50;18.70;;;;;;;;;;6125893;23;20005;-74
2022/11/12 03:56:25;;;;;;;35.25;20.95;;;;;;;;;;6124775;23;20002;-71
2022/11/12 03:58:51;;;;;;;21.23;12.45;;;;;;;;;;6124607;23;20006;-73
2022/11/12 04:01:17;;;;;;;33.95;17.15;;;;;;;;;;6099553;23;20361;-73
2022/11/12 04:03:44;;;;;;;10.93;6.28;;;;;;;;;;6098920;23;20017;-73
2022/11/12 04:08:55;;;;;;;48.47;26.15;;;;;;;;;;6125098;23;20021;-73
2022/11/12 04:11:21;;;;;;;33.67;25.17;;;;;;;;;;6099512;23;20076;-73
2022/11/12 04:13:47;;;;;;;77.30;41.40;;;;;;;;;;6125389;23;20001;-72
2022/11/12 04:21:53;;;;;;;16.17;14.77;;;;;;;;;;6125337;23;20017;-73
2022/11/12 04:27:16;;;;;;;58.10;23.83;;;;;;;;;;6125277;23;20061;-73
2022/11/12 04:32:28;;;;;;;18.67;10.38;;;;;;;;;;6125206;23;20021;-74
2022/11/12 04:34:55;;;;;;;27.60;17.63;;;;;;;;;;6125354;23;20006;-74
2022/11/12 04:37:22;;;;;;;16.63;8.68;;;;;;;;;;6122506;23;20022;-74
2022/11/12 04:39:48;;;;;;;6.45;5.85;;;;;;;;;;6119880;23;20005;-72
2022/11/12 04:45:13;;;;;;;52.78;23.67;;;;;;;;;;6059766;23;20335;-72
2022/11/12 04:47:42;;;;;;;27.70;20.98;;;;;;;;;;6125717;23;20005;-73
2022/11/12 04:50:14;;;;;;;22.23;13.55;;;;;;;;;;6098573;23;20029;-73
2022/11/12 04:52:40;;;;;;;14.13;13.23;;;;;;;;;;6124174;23;20088;-74
2022/11/12 04:55:07;;;;;;;53.78;31.63;;;;;;;;;;6098736;23;20343;-72
2022/11/12 04:57:33;;;;;;;12.98;10.98;;;;;;;;;;6099083;23;20002;-74
2022/11/12 05:00:00;;;;;;;32.17;21.40;;;;;;;;;;6098884;23;20021;-72
2022/11/12 05:02:26;;;;;;;17.13;10.45;;;;;;;;;;6125045;23;20494;-72
2022/11/12 05:04:52;;;;;;;16.15;13.60;;;;;;;;;;6125322;23;20002;-73
2022/11/12 05:07:19;;;;;;;25.05;22.77;;;;;;;;;;6099142;23;20012;-73
2022/11/12 05:09:45;;;;;;;4.57;4.35;;;;;;;;;;6098587;23;20025;-73
2022/11/12 05:12:12;;;;;;;65.38;29.83;;;;;;;;;;6097685;23;20016;-72
2022/11/12 05:14:38;;;;;;;16.17;15.13;;;;;;;;;;6122756;23;20038;-72
2022/11/12 05:17:05;;;;;;;20.55;8.50;;;;;;;;;;6101132;23;20017;-74
2022/11/12 05:19:32;;;;;;;25.17;13.98;;;;;;;;;;6126520;23;20006;-74
2022/11/12 05:22:04;;;;;;;26.15;20.33;;;;;;;;;;6125953;23;20006;-73
2022/11/12 05:24:35;;;;;;;32.50;21.52;;;;;;;;;;6126946;23;20033;-73
2022/11/12 05:27:01;;;;;;;5.03;4.60;;;;;;;;;;6126585;23;20025;-74
2022/11/12 05:29:27;;;;;;;7.72;7.15;;;;;;;;;;6100719;23;20089;-75
2022/11/12 05:31:54;;;;;;;98.70;46.83;;;;;;;;;;6126055;23;20518;-73
2022/11/12 05:34:21;;;;;;;48.25;34.10;;;;;;;;;;6126266;23;20076;-74
2022/11/12 05:36:47;;;;;;;10.80;9.82;;;;;;;;;;6100360;23;20431;-74
2022/11/12 05:39:14;;;;;;;12.52;10.07;;;;;;;;;;6099680;23;20029;-74
2022/11/12 05:41:40;;;;;;;11.48;10.77;;;;;;;;;;6098309;23;20002;-74
2022/11/12 05:44:06;;;;;;;13.40;10.43;;;;;;;;;;6123957;23;20002;-72
2022/11/12 05:46:33;;;;;;;23.48;14.02;;;;;;;;;;6099849;23;20048;-73
2022/11/12 05:48:59;;;;;;;8.48;7.45;;;;;;;;;;6126166;23;20002;-73
2022/11/12 05:51:25;;;;;;;15.45;12.00;;;;;;;;;;6125681;23;20009;-74
2022/11/12 05:53:51;;;;;;;37.35;19.67;;;;;;;;;;6124487;23;20001;-73
2022/11/12 05:56:18;;;;;;;7.57;7.13;;;;;;;;;;6126137;23;20423;-72
2022/11/12 05:58:44;;;;;;;37.65;27.45;;;;;;;;;;6126180;23;20005;-74
2022/11/12 06:01:11;;;;;;;8.77;8.10;;;;;;;;;;6099945;23;20017;-73
2022/11/12 06:03:37;;;;;;;32.05;23.98;;;;;;;;;;6125415;23;20025;-75
2022/11/12 06:06:03;;;;;;;20.10;14.15;;;;;;;;;;6100000;23;20006;-73
2022/11/12 06:08:30;;;;;;;12.77;11.55;;;;;;;;;;6125281;23;20053;-73
2022/11/12 06:10:56;;;;;;;21.02;19.08;;;;;;;;;;6099859;23;20006;-73
2022/11/12 06:13:23;;;;;;;16.50;8.90;;;;;;;;;;6125854;23;20064;-73
2022/11/12 06:15:50;;;;;;;6.10;5.78;;;;;;;;;;6098632;23;20130;-74
2022/11/12 06:18:16;;;;;;;8.98;7.80;;;;;;;;;;6098968;23;20081;-73
2022/11/12 06:20:42;;;;;;;71.18;32.33;;;;;;;;;;6099762;23;20016;-73
2022/11/12 06:23:09;;;;;;;16.38;11.63;;;;;;;;;;6125929;23;19997;-72
2022/11/12 06:25:35;;;;;;;18.85;17.58;;;;;;;;;;6126407;23;20080;-73
2022/11/12 06:28:01;;;;;;;33.80;16.85;;;;;;;;;;6125919;23;20048;-73
2022/11/12 06:30:28;;;;;;;12.95;7.15;;;;;;;;;;6100022;23;20021;-75
2022/11/12 06:32:54;;;;;;;7.38;6.88;;;;;;;;;;6098040;23;20006;-74
2022/11/12 06:35:20;;;;;;;16.63;8.57;;;;;;;;;;6125036;23;20010;-74
2022/11/12 06:37:46;;;;;;;38.38;14.60;;;;;;;;;;6099784;23;20008;-74
2022/11/12 06:40:13;;;;;;;8.02;7.10;;;;;;;;;;6126169;23;20006;-73
2022/11/12 06:42:40;;;;;;;22.27;12.88;;;;;;;;;;6126031;23;20015;-74
2022/11/12 06:45:06;;;;;;;20.63;11.70;;;;;;;;;;6099750;23;20041;-72
2022/11/12 07:14:45;;;;;;;13.57;8.98;;;;;;;;;;5130509;27;20383;-72
2022/11/12 07:17:12;;;;;;;9.13;8.38;;;;;;;;;;5107996;28;20032;-73
2022/11/12 07:19:38;;;;;;;13.13;11.82;;;;;;;;;;5107834;28;20073;-73
2022/11/12 07:22:04;;;;;;;11.63;9.18;;;;;;;;;;5127681;28;20023;-73
2022/11/12 07:24:30;;;;;;;4.97;4.63;;;;;;;;;;5107863;28;20107;-72
2022/11/12 07:26:57;;;;;;;14.25;6.55;;;;;;;;;;5096312;28;20020;-73
2022/11/12 07:29:23;;;;;;;6.75;6.20;;;;;;;;;;5089551;28;20024;-73
2022/11/12 07:31:50;;;;;;;25.40;20.10;;;;;;;;;;5105285;28;20123;-73
2022/11/12 07:34:16;;;;;;;39.05;16.33;;;;;;;;;;5097143;28;20042;-73
2022/11/12 07:36:43;;;;;;;18.63;11.57;;;;;;;;;;5089417;28;20024;-72
2022/11/12 07:39:09;;;;;;;37.13;23.55;;;;;;;;;;5089115;28;20024;-71
2022/11/12 07:41:35;;;;;;;14.27;10.35;;;;;;;;;;5090981;28;20375;-72
2022/11/12 07:44:02;;;;;;;65.22;28.95;;;;;;;;;;5103137;28;20039;-72
2022/11/12 07:46:28;;;;;;;17.20;10.13;;;;;;;;;;5093968;28;20025;-72
2022/11/12 07:48:55;;;;;;;17.98;14.02;;;;;;;;;;5092637;28;20028;-73
2022/11/12 07:51:22;;;;;;;47.08;22.35;;;;;;;;;;5097707;28;20034;-72
2022/11/12 07:53:49;;;;;;;19.88;13.43;;;;;;;;;;5092624;28;20093;-73
2022/11/12 07:56:17;;;;;;;7.88;5.65;;;;;;;;;;5092299;28;20043;-72
2022/11/12 07:58:44;;;;;;;16.65;8.20;;;;;;;;;;5103641;28;20097;-73
2022/11/12 08:01:30;;;;;;;16.15;10.25;;;;;;;;;;5096014;28;20036;-72
2022/11/12 08:03:57;;;;;;;1.92;1.83;;;;;;;;;;5094810;28;20032;-72
2022/11/12 08:06:24;;;;;;;48.40;20.77;;;;;;;;;;5086962;28;20035;-72
2022/11/12 08:08:57;;;;;;;14.48;13.13;;;;;;;;;;5088373;28;20051;-73
2022/11/12 08:11:24;;;;;;;18.80;16.95;;;;;;;;;;5087060;28;20081;-72
2022/11/12 08:13:50;;;;;;;8.75;4.28;;;;;;;;;;5083066;28;20049;-73
2022/11/12 08:16:17;;;;;;;7.70;6.28;;;;;;;;;;5074454;28;20103;-73
2022/11/12 08:18:44;;;;;;;5.53;3.40;;;;;;;;;;5074689;28;20119;-73
2022/11/12 08:21:12;;;;;;;8.35;1.83;;;;;;;;;;5074564;28;20032;-72
2022/11/12 08:23:38;;;;;;;15.35;4.35;;;;;;;;;;5074523;28;20041;-73
2022/11/12 08:26:06;;;;;;;3.95;3.60;;;;;;;;;;5072014;28;20032;-72
2022/11/12 08:28:33;;;;;;;8.98;8.13;;;;;;;;;;5071367;28;20028;-73
2022/11/12 08:31:04;;;;;;;9.18;8.23;;;;;;;;;;5072640;28;20475;-73
2022/11/12 08:33:30;;;;;;;10.15;8.70;;;;;;;;;;5073379;28;20553;-72
2022/11/12 08:35:57;;;;;;;10.57;9.95;;;;;;;;;;5073398;28;20078;-72
2022/11/12 08:38:23;;;;;;;1.27;1.27;;;;;;;;;;5063615;28;20446;-73
2022/11/12 08:40:49;;;;;;;14.02;12.73;;;;;;;;;;5074115;28;20063;-72
2022/11/12 08:43:16;;;;;;;3.83;3.45;;;;;;;;;;5074137;28;20060;-72
2022/11/12 08:45:42;;;;;;;14.15;10.48;;;;;;;;;;5072934;28;20078;-74
2022/11/12 08:48:10;;;;;;;19.25;12.73;;;;;;;;;;5074205;28;20024;-74
2022/11/12 08:50:36;;;;;;;3.55;3.33;;;;;;;;;;5051433;28;20037;-74
2022/11/12 08:53:04;;;;;;;13.05;6.53;;;;;;;;;;5073603;28;20032;-72
2022/11/12 08:55:32;;;;;;;15.07;7.82;;;;;;;;;;5072686;28;20028;-72
2022/11/12 08:58:01;;;;;;;18.08;14.88;;;;;;;;;;5072259;28;20024;-71
2022/11/12 09:00:38;;;;;;;7.07;5.75;;;;;;;;;;5062379;28;20106;-73
2022/11/12 09:03:05;;;;;;;20.85;11.68;;;;;;;;;;5072278;28;20213;-72
2022/11/12 09:05:32;;;;;;;43.00;20.42;;;;;;;;;;5072611;28;20028;-73
2022/11/12 09:08:03;;;;;;;54.78;24.88;;;;;;;;;;5073254;28;20503;-73
2022/11/12 09:10:30;;;;;;;36.05;21.73;;;;;;;;;;5074229;28;20024;-73
2022/11/12 09:12:56;;;;;;;71.47;33.65;;;;;;;;;;5078384;28;20048;-72
2022/11/12 09:15:23;;;;;;;12.18;7.85;;;;;;;;;;5093460;28;20024;-72
2022/11/12 09:17:56;;;;;;;9.63;3.97;;;;;;;;;;5093568;28;20441;-73
2022/11/12 09:20:23;;;;;;;4.95;4.28;;;;;;;;;;5072622;28;20028;-73
2022/11/12 09:22:49;;;;;;;28.02;14.35;;;;;;;;;;5091824;28;20039;-71
2022/11/12 09:25:16;;;;;;;12.43;9.75;;;;;;;;;;5074624;28;20028;-72
2022/11/12 09:27:42;;;;;;;7.25;6.72;;;;;;;;;;5092413;28;20024;-72
2022/11/12 09:30:08;;;;;;;16.02;14.38;;;;;;;;;;5092743;28;20039;-72
2022/11/12 09:32:35;;;;;;;4.15;3.83;;;;;;;;;;5093803;28;20475;-73
2022/11/12 09:35:01;;;;;;;18.88;5.53;;;;;;;;;;5092952;28;20028;-72
2022/11/12 09:37:27;;;;;;;13.18;11.95;;;;;;;;;;5093524;28;20039;-72
2022/11/12 09:39:54;;;;;;;8.82;8.00;;;;;;;;;;5074723;28;20035;-72
2022/11/12 09:42:21;;;;;;;29.40;14.70;;;;;;;;;;5071455;28;20046;-71
2022/11/12 09:45:11;;;;;;;38.90;22.35;;;;;;;;;;5089627;28;20031;-72
2022/11/12 09:47:42;;;;;;;20.42;3.10;;;;;;;;;;5091295;28;20028;-74
2022/11/12 09:50:27;;;;;;;37.25;25.02;;;;;;;;;;5069451;28;20028;-73
2022/11/12 09:53:20;;;;;;;16.25;14.80;;;;;;;;;;5087849;28;20028;-72
2022/11/12 09:55:48;;;;;;;9.18;8.75;;;;;;;;;;5087608;28;20040;-71
2022/11/12 09:58:15;;;;;;;12.00;10.55;;;;;;;;;;5089192;28;20082;-72
2022/11/12 10:00:51;;;;;;;36.30;10.00;;;;;;;;;;5069229;28;20028;-73
2022/11/12 10:03:26;;;;;;;30.88;12.88;;;;;;;;;;5065664;28;20036;-73
2022/11/12 10:06:06;;;;;;;21.48;16.05;;;;;;;;;;5072996;28;20049;-71
2022/11/12 10:08:48;;;;;;;26.75;16.65;;;;;;;;;;5074300;28;20047;-73
2022/11/12 10:14:50;;;;;;;9.52;8.10;;;;;;;;;;5088589;28;20059;-73
2022/11/12 10:17:27;;;;;;;15.07;10.52;;;;;;;;;;5074873;28;20039;-71
2022/11/12 10:19:53;;;;;;;1.73;1.63;;;;;;;;;;5073584;28;20115;-72
2022/11/12 10:22:35;;;;;;;9.55;8.48;;;;;;;;;;5088620;28;20035;-72
2022/11/12 10:25:12;;;;;;;34.20;17.30;;;;;;;;;;5076881;28;20382;-72
2022/11/12 10:27:40;;;;;;;8.57;8.05;;;;;;;;;;5074873;28;20024;-73
2022/11/12 10:30:07;;;;;;;6.70;6.20;;;;;;;;;;5070808;28;20060;-73
2022/11/12 10:32:34;;;;;;;5.07;3.60;;;;;;;;;;5073034;28;20056;-73
2022/11/12 10:35:00;;;;;;;34.97;10.15;;;;;;;;;;5092690;28;20035;-73
2022/11/12 10:37:39;;;;;;;5.85;5.43;;;;;;;;;;5091775;28;20051;-73
2022/11/12 10:40:25;;;;;;;0.68;0.68;;;;;;;;;;5062656;28;20036;-72
2022/11/12 10:42:56;;;;;;;15.23;7.82;;;;;;;;;;5089911;28;20031;-72
2022/11/12 10:45:23;;;;;;;19.08;17.35;;;;;;;;;;5093002;28;20047;-73
2022/11/12 10:47:50;;;;;;;19.67;18.40;;;;;;;;;;5092436;28;20024;-74
2022/11/12 10:50:34;;;;;;;24.42;14.63;;;;;;;;;;5074521;28;20028;-74
2022/11/12 10:53:02;;;;;;;31.80;18.95;;;;;;;;;;5092132;28;20103;-72
2022/11/12 10:55:30;;;;;;;46.95;22.70;;;;;;;;;;5091720;28;20518;-73
2022/11/12 10:58:18;;;;;;;3.25;3.05;;;;;;;;;;5092253;28;20028;-70
2022/11/12 11:00:55;;;;;;;47.70;23.42;;;;;;;;;;5073576;28;20130;-74
2022/11/12 11:03:25;;;;;;;10.32;9.27;;;;;;;;;;5091874;28;20073;-71
2022/11/12 11:05:53;;;;;;;19.85;18.40;;;;;;;;;;5091982;28;20032;-73
2022/11/12 11:08:33;;;;;;;5.45;5.05;;;;;;;;;;5054263;28;20063;-73
2022/11/12 11:11:29;;;;;;;6.47;6.22;;;;;;;;;;5072222;28;20028;-72
2022/11/12 11:13:57;;;;;;;8.55;7.38;;;;;;;;;;5051407;28;20136;-72
2022/11/12 11:16:25;;;;;;;17.42;9.07;;;;;;;;;;5071763;28;20103;-72
2022/11/12 11:19:04;;;;;;;22.05;14.05;;;;;;;;;;5070753;28;20029;-72
2022/11/12 11:21:40;;;;;;;13.38;12.18;;;;;;;;;;5061204;28;20025;-71
2022/11/12 11:24:06;;;;;;;14.10;9.52;;;;;;;;;;5069610;28;20471;-72
2022/11/12 11:26:54;;;;;;;7.13;6.68;;;;;;;;;;5061933;28;20033;-72
2022/11/12 11:29:39;;;;;;;68.93;36.35;;;;;;;;;;5062065;28;20106;-72
2022/11/12 11:32:31;;;;;;;48.60;10.00;;;;;;;;;;5061645;28;20039;-70
2022/11/12 11:35:04;;;;;;;41.47;17.00;;;;;;;;;;5068756;28;20040;-72
2022/11/12 11:37:33;;;;;;;8.60;5.45;;;;;;;;;;5061831;28;20024;-73
2022/11/12 11:40:05;;;;;;;1.20;1.20;;;;;;;;;;5068218;28;20032;-71
2022/11/12 11:42:52;;;;;;;12.20;11.30;;;;;;;;;;5071285;28;20025;-71
2022/11/12 11:45:20;;;;;;;10.98;9.88;;;;;;;;;;5071921;28;20035;-72
2022/11/12 11:48:13;;;;;;;8.60;7.97;;;;;;;;;;5065600;28;20384;-71
2022/11/12 11:50:46;;;;;;;15.40;11.93;;;;;;;;;;5066067;28;20028;-72
2022/11/12 11:53:18;;;;;;;7.28;3.25;;;;;;;;;;5065727;28;20492;-72
2022/11/12 11:55:48;;;;;;;5.35;5.15;;;;;;;;;;5066878;28;20468;-71
2022/11/12 11:58:17;;;;;;;16.77;15.23;;;;;;;;;;5066419;28;20028;-71
2022/11/12 12:00:43;;;;;;;31.08;21.38;;;;;;;;;;5071949;28;20162;-71
2022/11/12 12:03:22;;;;;;;11.30;10.32;;;;;;;;;;5064465;28;20174;-71
2022/11/12 12:06:03;;;;;;;4.13;3.97;;;;;;;;;;5060387;28;20029;-70
2022/11/12 12:08:37;;;;;;;16.58;13.50;;;;;;;;;;5069045;28;20056;-71
2022/11/12 12:11:10;;;;;;;7.72;6.75;;;;;;;;;;5066052;28;20492;-71
2022/11/12 12:13:36;;;;;;;2.85;2.72;;;;;;;;;;5080152;28;20055;-70
2022/11/12 12:16:18;;;;;;;18.48;16.55;;;;;;;;;;5095501;28;20028;-71
2022/11/12 12:19:03;;;;;;;3.83;3.50;;;;;;;;;;5077255;28;20031;-71
2022/11/12 12:21:31;;;;;;;9.57;8.65;;;;;;;;;;5077136;28;20028;-71
2022/11/12 12:24:20;;;;;;;8.77;8.20;;;;;;;;;;5092158;28;20077;-71
2022/11/12 12:26:53;;;;;;;8.25;7.85;;;;;;;;;;5057258;28;20036;-72
2022/11/12 12:29:23;;;;;;;13.63;12.55;;;;;;;;;;5073099;28;20032;-72
2022/11/12 12:31:52;;;;;;;10.43;9.23;;;;;;;;;;5075678;28;20169;-72
2022/11/12 12:34:22;;;;;;;9.05;6.63;;;;;;;;;;5073018;28;20060;-72
2022/11/12 12:36:51;;;;;;;2.90;2.65;;;;;;;;;;5083881;28;20042;-72
2022/11/12 12:39:18;;;;;;;7.35;6.97;;;;;;;;;;5094955;28;20024;-70
2022/11/12 12:41:45;;;;;;;3.13;3.03;;;;;;;;;;5075043;28;20478;-70
2022/11/12 12:44:11;;;;;;;14.15;9.75;;;;;;;;;;5079322;28;20063;-72
2022/11/12 12:46:40;;;;;;;5.05;4.57;;;;;;;;;;5074598;28;20102;-71
2022/11/12 12:49:07;;;;;;;8.57;8.18;;;;;;;;;;5075482;28;20475;-72
2022/11/12 12:51:34;;;;;;;0.10;0.10;;;;;;;;;;5075710;28;20042;-73
2022/11/12 12:54:00;;;;;;;2.80;2.70;;;;;;;;;;5070153;28;20073;-72
2022/11/12 12:56:33;;;;;;;6.70;6.18;;;;;;;;;;5086281;28;20028;-72
2022/11/12 12:59:02;;;;;;;7.55;7.18;;;;;;;;;;5086726;28;20107;-72
2022/11/12 13:01:30;;;;;;;8.48;8.15;;;;;;;;;;5074215;28;20055;-72
2022/11/12 13:04:04;;;;;;;78.10;33.63;;;;;;;;;;5079944;28;20112;-72
2022/11/12 13:06:33;;;;;;;7.28;6.57;;;;;;;;;;5064105;28;20024;-71
2022/11/12 13:09:02;;;;;;;121.78;55.75;;;;;;;;;;5085784;28;20092;-71
2022/11/12 13:14:34;;;;;;;14.82;13.73;;;;;;;;;;5082318;28;20258;-72
2022/11/12 13:17:02;;;;;;;19.48;17.15;;;;;;;;;;5086409;28;20468;-71
2022/11/12 13:19:48;;;;;;;103.18;36.85;;;;;;;;;;5082414;28;20392;-70
2022/11/12 13:22:17;;;;;;;58.67;34.00;;;;;;;;;;5054204;28;20040;-71
2022/11/12 13:25:02;;;;;;;45.58;25.77;;;;;;;;;;5078874;28;20069;-72
2022/11/12 13:27:44;;;;;;;144.05;72.47;;;;;;;;;;5080994;28;20137;-69
2022/11/12 13:30:16;;;;;;;51.55;21.73;;;;;;;;;;5086034;28;20054;-72
2022/11/12 13:32:51;;;;;;;116.07;59.95;;;;;;;;;;5082391;28;20019;-71
2022/11/12 13:35:17;;;;;;;199.52;83.22;;;;;;;;;;5079214;28;20028;-71
2022/11/12 13:38:02;;;;;;;81.68;43.00;;;;;;;;;;5093764;28;20079;-71
2022/11/12 13:40:47;;;;;;;159.65;73.07;;;;;;;;;;5067435;28;20025;-72
2022/11/12 13:43:18;;;;;;;159.88;65.72;;;;;;;;;;5081789;28;20024;-71
2022/11/12 13:46:11;;;;;;;295.27;115.55;;;;;;;;;;5069668;28;20379;-71
2022/11/12 13:48:42;;;;;;;241.02;108.00;;;;;;;;;;5067055;28;20029;-71
2022/11/12 13:51:27;;;;;;;271.38;107.10;;;;;;;;;;5083647;28;20491;-71
2022/11/12 13:53:53;;;;;;;119.18;56.72;;;;;;;;;;5083587;28;20467;-71
2022/11/12 13:56:30;;;;;;;197.15;90.25;;;;;;;;;;5065995;28;20028;-71
2022/11/12 13:59:16;;;;;;;46.60;20.92;;;;;;;;;;5069850;28;20050;-71
2022/11/12 14:01:43;;;;;;;33.47;20.60;;;;;;;;;;5071706;28;20120;-72
2022/11/12 14:04:11;;;;;;;38.92;27.58;;;;;;;;;;5085741;28;20028;-70
2022/11/12 14:06:40;;;;;;;159.35;73.45;;;;;;;;;;5072025;28;20024;-72
2022/11/12 14:09:13;;;;;;;120.60;61.22;;;;;;;;;;5071804;28;20021;-73
2022/11/12 14:11:45;;;;;;;107.50;53.35;;;;;;;;;;5092226;28;20077;-71
2022/11/12 14:14:14;;;;;;;177.52;76.80;;;;;;;;;;5085981;28;20113;-73
2022/11/12 14:16:59;;;;;;;129.55;64.53;;;;;;;;;;5086248;28;20444;-72
2022/11/12 14:19:26;;;;;;;203.77;90.63;;;;;;;;;;5068315;28;20058;-72
2022/11/12 14:22:10;;;;;;;279.38;118.40;;;;;;;;;;5088475;28;20480;-72
2022/11/12 14:24:37;;;;;;;332.40;132.77;;;;;;;;;;5089650;28;20032;-71
2022/11/12 14:27:03;;;;;;;233.13;100.22;;;;;;;;;;5068484;28;20024;-72
2022/11/12 14:29:29;;;;;;;138.90;73.60;;;;;;;;;;5086739;28;20027;-73
2022/11/12 14:32:02;;;;;;;20.40;19.27;;;;;;;;;;5070841;28;20529;-74
2022/11/12 14:34:33;;;;;;;12.25;8.13;;;;;;;;;;5070270;28;20029;-72
2022/11/12 14:37:00;;;;;;;64.78;38.63;;;;;;;;;;5090739;28;20031;-73
2022/11/12 14:39:28;;;;;;;120.22;64.03;;;;;;;;;;5091061;28;20032;-73
2022/11/12 14:41:55;;;;;;;194.23;83.53;;;;;;;;;;5074587;28;20102;-81
2022/11/12 14:44:42;;;;;;;195.48;81.03;;;;;;;;;;5072402;28;20064;-71
2022/11/12 14:47:09;;;;;;;257.17;103.10;;;;;;;;;;5073068;28;20077;-71
2022/11/12 14:49:47;;;;;;;190.73;85.07;;;;;;;;;;5091452;28;20024;-71
2022/11/12 14:52:18;;;;;;;163.27;66.67;;;;;;;;;;5090198;28;20020;-71
2022/11/12 14:54:49;;;;;;;73.03;36.27;;;;;;;;;;5074068;28;20028;-69
2022/11/12 14:57:36;;;;;;;59.63;33.77;;;;;;;;;;5091665;28;20144;-70
2022/11/12 15:00:16;;;;;;;126.17;58.73;;;;;;;;;;5078848;28;20029;-71
2022/11/12 15:02:43;;;;;;;198.07;84.93;;;;;;;;;;5091568;28;20032;-71
2022/11/12 15:05:12;;;;;;;50.93;28.77;;;;;;;;;;5091988;28;20039;-70
2022/11/12 15:07:53;;;;;;;137.60;59.33;;;;;;;;;;5085154;28;20047;-70
2022/11/12 15:10:29;;;;;;;29.77;17.03;;;;;;;;;;5069443;28;20046;-69
2022/11/12 15:13:09;;;;;;;10.80;9.77;;;;;;;;;;5064317;28;20570;-70
2022/11/12 15:15:49;;;;;;;32.03;22.90;;;;;;;;;;5060150;28;20036;-70
2022/11/12 15:18:17;;;;;;;11.80;9.43;;;;;;;;;;5059634;28;20115;-70
2022/11/12 15:20:44;;;;;;;11.00;9.93;;;;;;;;;;5062240;28;20072;-70
2022/11/12 15:23:20;;;;;;;125.47;59.27;;;;;;;;;;5062139;28;20048;-72
2022/11/12 15:25:56;;;;;;;34.00;14.17;;;;;;;;;;5075203;28;20013;-74
2022/11/12 15:28:23;;;;;;;70.70;35.92;;;;;;;;;;5074354;28;20444;-71
2022/11/12 15:31:00;;;;;;;26.57;24.20;;;;;;;;;;5066016;28;20021;-71
2022/11/12 15:33:26;;;;;;;97.47;41.37;;;;;;;;;;5075593;28;20024;-72
2022/11/12 15:35:57;;;;;;;34.97;26.37;;;;;;;;;;5075194;28;20037;-71